sensor_id;sensor_type;location;lat;lon;timestamp;P1;durP1;ratioP1;P2;durP2;ratioP2
8887;SDS011;4480;52.370;9.748;2022-10-17T00:00:18;7.20;;;3.53;;
8887;SDS011;4480;52.370;9.748;2022-10-17T00:02:45;3.70;;;2.90;;
8887;SDS011;4480;52.370;9.748;2022-10-17T00:05:13;3.67;;;3.37;;
8887;SDS011;4480;52.370;9.748;2022-10-17T00:07:40;3.63;;;3.33;;
8887;SDS011;4480;52.370;9.748;2022-10-17T00:10:07;5.87;;;3.17;;
8887;SDS011;4480;52.370;9.748;2022-10-17T00:12:34;3.80;;;3.50;;
8887;SDS011;4480;52.370;9.748;2022-10-17T00:15:01;5.80;;;3.20;;
8887;SDS011;4480;52.370;9.748;2022-10-17T00:17:29;3.80;;;3.03;;
8887;SDS011;4480;52.370;9.748;2022-10-17T00:19:57;3.87;;;3.57;;
8887;SDS011;4480;52.370;9.748;2022-10-17T00:22:25;2.97;;;2.77;;
8887;SDS011;4480;52.370;9.748;2022-10-17T00:24:52;3.03;;;2.63;;
8887;SDS011;4480;52.370;9.748;2022-10-17T00:27:19;3.73;;;3.43;;
8887;SDS011;4480;52.370;9.748;2022-10-17T00:29:46;3.07;;;2.80;;
8887;SDS011;4480;52.370;9.748;2022-10-17T00:32:14;3.30;;;3.00;;
8887;SDS011;4480;52.370;9.748;2022-10-17T00:34:40;4.53;;;3.07;;
8887;SDS011;4480;52.370;9.748;2022-10-17T00:37:07;3.23;;;2.93;;
8887;SDS011;4480;52.370;9.748;2022-10-17T00:39:35;6.93;;;3.50;;
8887;SDS011;4480;52.370;9.748;2022-10-17T00:42:02;5.10;;;3.40;;
8887;SDS011;4480;52.370;9.748;2022-10-17T00:47:27;4.73;;;3.37;;
8887;SDS011;4480;52.370;9.748;2022-10-17T00:49:55;6.40;;;3.33;;
8887;SDS011;4480;52.370;9.748;2022-10-17T00:52:24;5.77;;;3.80;;
8887;SDS011;4480;52.370;9.748;2022-10-17T00:54:56;4.90;;;3.53;;
8887;SDS011;4480;52.370;9.748;2022-10-17T00:57:26;5.80;;;4.00;;
8887;SDS011;4480;52.370;9.748;2022-10-17T00:59:54;4.33;;;3.90;;
8887;SDS011;4480;52.370;9.748;2022-10-17T01:02:24;4.37;;;3.97;;
8887;SDS011;4480;52.370;9.748;2022-10-17T01:04:51;5.03;;;3.93;;
8887;SDS011;4480;52.370;9.748;2022-10-17T01:07:23;5.00;;;3.97;;
8887;SDS011;4480;52.370;9.748;2022-10-17T01:09:50;7.27;;;4.40;;
8887;SDS011;4480;52.370;9.748;2022-10-17T01:12:19;5.57;;;4.40;;
8887;SDS011;4480;52.370;9.748;2022-10-17T01:14:55;5.03;;;4.40;;
8887;SDS011;4480;52.370;9.748;2022-10-17T01:17:33;5.23;;;4.60;;
8887;SDS011;4480;52.370;9.748;2022-10-17T01:20:15;4.30;;;3.90;;
8887;SDS011;4480;52.370;9.748;2022-10-17T01:23:04;4.20;;;3.70;;
8887;SDS011;4480;52.370;9.748;2022-10-17T01:25:45;4.30;;;3.90;;
8887;SDS011;4480;52.370;9.748;2022-10-17T01:28:24;4.13;;;3.70;;
8887;SDS011;4480;52.370;9.748;2022-10-17T01:31:24;4.60;;;3.63;;
8887;SDS011;4480;52.370;9.748;2022-10-17T01:34:00;4.90;;;3.73;;
8887;SDS011;4480;52.370;9.748;2022-10-17T01:36:34;5.07;;;3.83;;
8887;SDS011;4480;52.370;9.748;2022-10-17T01:39:08;5.47;;;4.00;;
8887;SDS011;4480;52.370;9.748;2022-10-17T01:41:40;5.40;;;3.83;;
8887;SDS011;4480;52.370;9.748;2022-10-17T01:44:10;4.70;;;3.63;;
8887;SDS011;4480;52.370;9.748;2022-10-17T01:46:42;4.60;;;4.10;;
8887;SDS011;4480;52.370;9.748;2022-10-17T01:49:12;4.20;;;3.80;;
8887;SDS011;4480;52.370;9.748;2022-10-17T01:51:41;4.33;;;3.83;;
8887;SDS011;4480;52.370;9.748;2022-10-17T01:54:13;3.90;;;3.50;;
8887;SDS011;4480;52.370;9.748;2022-10-17T01:56:43;4.30;;;3.90;;
8887;SDS011;4480;52.370;9.748;2022-10-17T01:59:13;4.57;;;4.10;;
8887;SDS011;4480;52.370;9.748;2022-10-17T02:01:47;6.50;;;3.83;;
8887;SDS011;4480;52.370;9.748;2022-10-17T02:04:17;4.07;;;3.73;;
8887;SDS011;4480;52.370;9.748;2022-10-17T02:06:45;5.23;;;4.13;;
8887;SDS011;4480;52.370;9.748;2022-10-17T02:09:16;6.30;;;3.80;;
8887;SDS011;4480;52.370;9.748;2022-10-17T02:11:46;5.10;;;3.23;;
8887;SDS011;4480;52.370;9.748;2022-10-17T02:14:22;4.23;;;3.60;;
8887;SDS011;4480;52.370;9.748;2022-10-17T02:17:00;3.60;;;3.30;;
8887;SDS011;4480;52.370;9.748;2022-10-17T02:19:34;5.20;;;3.57;;
8887;SDS011;4480;52.370;9.748;2022-10-17T02:22:13;3.93;;;3.50;;
8887;SDS011;4480;52.370;9.748;2022-10-17T02:24:48;3.93;;;3.50;;
8887;SDS011;4480;52.370;9.748;2022-10-17T02:27:22;5.50;;;3.60;;
8887;SDS011;4480;52.370;9.748;2022-10-17T02:29:54;4.40;;;3.30;;
8887;SDS011;4480;52.370;9.748;2022-10-17T02:32:25;4.93;;;3.83;;
8887;SDS011;4480;52.370;9.748;2022-10-17T02:34:58;3.00;;;2.77;;
8887;SDS011;4480;52.370;9.748;2022-10-17T02:37:28;3.37;;;3.07;;
8887;SDS011;4480;52.370;9.748;2022-10-17T02:39:58;3.77;;;3.40;;
8887;SDS011;4480;52.370;9.748;2022-10-17T02:42:26;3.70;;;3.40;;
8887;SDS011;4480;52.370;9.748;2022-10-17T02:44:54;4.53;;;3.93;;
8887;SDS011;4480;52.370;9.748;2022-10-17T02:47:26;3.63;;;3.33;;
8887;SDS011;4480;52.370;9.748;2022-10-17T02:49:57;3.50;;;3.20;;
8887;SDS011;4480;52.370;9.748;2022-10-17T02:52:26;3.83;;;3.10;;
8887;SDS011;4480;52.370;9.748;2022-10-17T02:55:00;4.40;;;3.53;;
8887;SDS011;4480;52.370;9.748;2022-10-17T02:57:33;7.17;;;3.50;;
8887;SDS011;4480;52.370;9.748;2022-10-17T03:00:03;5.20;;;4.10;;
8887;SDS011;4480;52.370;9.748;2022-10-17T03:02:38;4.83;;;4.30;;
8887;SDS011;4480;52.370;9.748;2022-10-17T03:05:06;4.33;;;3.97;;
8887;SDS011;4480;52.370;9.748;2022-10-17T03:07:34;7.63;;;4.07;;
8887;SDS011;4480;52.370;9.748;2022-10-17T03:10:00;8.00;;;4.80;;
8887;SDS011;4480;52.370;9.748;2022-10-17T03:12:27;4.60;;;4.13;;
8887;SDS011;4480;52.370;9.748;2022-10-17T03:14:54;5.73;;;5.20;;
8887;SDS011;4480;52.370;9.748;2022-10-17T03:17:21;5.90;;;5.30;;
8887;SDS011;4480;52.370;9.748;2022-10-17T03:19:49;5.83;;;5.00;;
8887;SDS011;4480;52.370;9.748;2022-10-17T03:22:16;5.53;;;5.03;;
8887;SDS011;4480;52.370;9.748;2022-10-17T03:24:42;5.87;;;5.37;;
8887;SDS011;4480;52.370;9.748;2022-10-17T03:27:09;9.20;;;5.17;;
8887;SDS011;4480;52.370;9.748;2022-10-17T03:29:36;5.67;;;4.97;;
8887;SDS011;4480;52.370;9.748;2022-10-17T03:32:03;5.53;;;4.77;;
8887;SDS011;4480;52.370;9.748;2022-10-17T03:34:30;6.30;;;5.13;;
8887;SDS011;4480;52.370;9.748;2022-10-17T03:36:59;6.97;;;5.07;;
8887;SDS011;4480;52.370;9.748;2022-10-17T03:39:25;5.57;;;5.00;;
8887;SDS011;4480;52.370;9.748;2022-10-17T03:41:52;7.80;;;5.13;;
8887;SDS011;4480;52.370;9.748;2022-10-17T03:44:19;5.47;;;4.97;;
8887;SDS011;4480;52.370;9.748;2022-10-17T03:46:46;7.47;;;4.73;;
8887;SDS011;4480;52.370;9.748;2022-10-17T03:49:12;5.20;;;4.40;;
8887;SDS011;4480;52.370;9.748;2022-10-17T03:51:39;5.50;;;5.00;;
8887;SDS011;4480;52.370;9.748;2022-10-17T03:54:07;5.40;;;4.90;;
8887;SDS011;4480;52.370;9.748;2022-10-17T03:56:34;5.60;;;5.00;;
8887;SDS011;4480;52.370;9.748;2022-10-17T03:59:01;5.27;;;4.77;;
8887;SDS011;4480;52.370;9.748;2022-10-17T04:01:28;5.30;;;4.80;;
8887;SDS011;4480;52.370;9.748;2022-10-17T04:03:55;5.47;;;4.97;;
8887;SDS011;4480;52.370;9.748;2022-10-17T04:06:22;4.80;;;4.23;;
8887;SDS011;4480;52.370;9.748;2022-10-17T04:10:21;5.17;;;4.67;;
8887;SDS011;4480;52.370;9.748;2022-10-17T04:12:48;6.23;;;5.63;;
8887;SDS011;4480;52.370;9.748;2022-10-17T04:15:15;5.90;;;5.30;;
8887;SDS011;4480;52.370;9.748;2022-10-17T04:17:42;5.53;;;4.87;;
8887;SDS011;4480;52.370;9.748;2022-10-17T04:20:09;5.73;;;4.97;;
8887;SDS011;4480;52.370;9.748;2022-10-17T04:22:36;5.60;;;5.10;;
8887;SDS011;4480;52.370;9.748;2022-10-17T04:25:02;9.30;;;5.43;;
8887;SDS011;4480;52.370;9.748;2022-10-17T04:27:31;5.80;;;5.07;;
8887;SDS011;4480;52.370;9.748;2022-10-17T04:29:58;6.00;;;4.93;;
8887;SDS011;4480;52.370;9.748;2022-10-17T04:32:24;5.77;;;4.43;;
8887;SDS011;4480;52.370;9.748;2022-10-17T04:34:51;5.57;;;4.70;;
8887;SDS011;4480;52.370;9.748;2022-10-17T04:37:18;5.07;;;4.50;;
8887;SDS011;4480;52.370;9.748;2022-10-17T04:39:45;5.97;;;5.47;;
8887;SDS011;4480;52.370;9.748;2022-10-17T04:42:11;5.57;;;5.03;;
8887;SDS011;4480;52.370;9.748;2022-10-17T04:44:40;7.07;;;5.57;;
8887;SDS011;4480;52.370;9.748;2022-10-17T04:47:06;5.40;;;4.90;;
8887;SDS011;4480;52.370;9.748;2022-10-17T04:49:33;5.73;;;5.13;;
8887;SDS011;4480;52.370;9.748;2022-10-17T04:52:00;5.37;;;4.87;;
8887;SDS011;4480;52.370;9.748;2022-10-17T04:54:27;5.73;;;5.13;;
8887;SDS011;4480;52.370;9.748;2022-10-17T04:56:54;5.50;;;5.00;;
8887;SDS011;4480;52.370;9.748;2022-10-17T04:59:20;5.57;;;4.53;;
8887;SDS011;4480;52.370;9.748;2022-10-17T05:01:49;5.93;;;5.27;;
8887;SDS011;4480;52.370;9.748;2022-10-17T05:04:15;6.53;;;4.80;;
8887;SDS011;4480;52.370;9.748;2022-10-17T05:06:42;5.60;;;4.43;;
8887;SDS011;4480;52.370;9.748;2022-10-17T05:09:09;7.73;;;5.00;;
8887;SDS011;4480;52.370;9.748;2022-10-17T05:11:36;5.27;;;4.77;;
8887;SDS011;4480;52.370;9.748;2022-10-17T05:14:02;5.63;;;4.90;;
8887;SDS011;4480;52.370;9.748;2022-10-17T05:16:30;5.10;;;4.60;;
8887;SDS011;4480;52.370;9.748;2022-10-17T05:18:58;5.43;;;4.30;;
8887;SDS011;4480;52.370;9.748;2022-10-17T05:21:25;6.20;;;4.10;;
8887;SDS011;4480;52.370;9.748;2022-10-17T05:23:53;6.37;;;4.10;;
8887;SDS011;4480;52.370;9.748;2022-10-17T05:26:21;4.40;;;4.00;;
8887;SDS011;4480;52.370;9.748;2022-10-17T05:28:48;6.90;;;4.13;;
8887;SDS011;4480;52.370;9.748;2022-10-17T05:31:16;4.60;;;4.20;;
8887;SDS011;4480;52.370;9.748;2022-10-17T05:33:43;5.07;;;4.50;;
8887;SDS011;4480;52.370;9.748;2022-10-17T05:36:11;4.47;;;3.73;;
8887;SDS011;4480;52.370;9.748;2022-10-17T05:38:38;4.43;;;4.03;;
8887;SDS011;4480;52.370;9.748;2022-10-17T05:41:05;4.87;;;4.30;;
8887;SDS011;4480;52.370;9.748;2022-10-17T05:43:32;4.20;;;3.80;;
8887;SDS011;4480;52.370;9.748;2022-10-17T05:46:01;7.03;;;4.23;;
8887;SDS011;4480;52.370;9.748;2022-10-17T05:48:29;3.87;;;3.57;;
8887;SDS011;4480;52.370;9.748;2022-10-17T05:50:56;8.53;;;4.00;;
8887;SDS011;4480;52.370;9.748;2022-10-17T05:53:26;8.13;;;4.10;;
8887;SDS011;4480;52.370;9.748;2022-10-17T05:55:56;7.33;;;4.23;;
8887;SDS011;4480;52.370;9.748;2022-10-17T05:58:23;4.10;;;3.70;;
8887;SDS011;4480;52.370;9.748;2022-10-17T06:00:50;4.00;;;3.70;;
8887;SDS011;4480;52.370;9.748;2022-10-17T06:03:16;4.47;;;4.07;;
8887;SDS011;4480;52.370;9.748;2022-10-17T06:05:43;4.50;;;3.70;;
8887;SDS011;4480;52.370;9.748;2022-10-17T06:08:10;5.53;;;3.90;;
8887;SDS011;4480;52.370;9.748;2022-10-17T06:10:38;4.20;;;3.80;;
8887;SDS011;4480;52.370;9.748;2022-10-17T06:13:05;5.00;;;4.50;;
8887;SDS011;4480;52.370;9.748;2022-10-17T06:15:32;4.97;;;3.80;;
8887;SDS011;4480;52.370;9.748;2022-10-17T06:17:58;4.60;;;3.67;;
8887;SDS011;4480;52.370;9.748;2022-10-17T06:20:25;4.07;;;3.70;;
8887;SDS011;4480;52.370;9.748;2022-10-17T06:22:52;4.27;;;3.87;;
8887;SDS011;4480;52.370;9.748;2022-10-17T06:25:18;4.67;;;3.83;;
8887;SDS011;4480;52.370;9.748;2022-10-17T06:27:47;4.30;;;3.90;;
8887;SDS011;4480;52.370;9.748;2022-10-17T06:30:13;3.77;;;3.47;;
8887;SDS011;4480;52.370;9.748;2022-10-17T06:32:40;6.97;;;3.70;;
8887;SDS011;4480;52.370;9.748;2022-10-17T06:35:07;4.73;;;4.00;;
8887;SDS011;4480;52.370;9.748;2022-10-17T06:37:34;7.60;;;4.20;;
8887;SDS011;4480;52.370;9.748;2022-10-17T06:40:01;5.23;;;3.73;;
8887;SDS011;4480;52.370;9.748;2022-10-17T06:42:28;3.73;;;3.43;;
8887;SDS011;4480;52.370;9.748;2022-10-17T06:44:56;5.30;;;3.70;;
8887;SDS011;4480;52.370;9.748;2022-10-17T06:47:23;4.03;;;3.60;;
8887;SDS011;4480;52.370;9.748;2022-10-17T06:49:50;5.30;;;4.80;;
8887;SDS011;4480;52.370;9.748;2022-10-17T06:52:17;9.43;;;4.60;;
8887;SDS011;4480;52.370;9.748;2022-10-17T06:54:43;3.70;;;3.40;;
8887;SDS011;4480;52.370;9.748;2022-10-17T06:57:10;5.23;;;3.80;;
8887;SDS011;4480;52.370;9.748;2022-10-17T06:59:37;4.40;;;3.60;;
8887;SDS011;4480;52.370;9.748;2022-10-17T07:02:05;3.47;;;3.00;;
8887;SDS011;4480;52.370;9.748;2022-10-17T07:04:34;3.60;;;3.30;;
8887;SDS011;4480;52.370;9.748;2022-10-17T07:07:00;3.67;;;2.93;;
8887;SDS011;4480;52.370;9.748;2022-10-17T07:09:28;2.87;;;2.67;;
8887;SDS011;4480;52.370;9.748;2022-10-17T07:11:55;4.47;;;3.17;;
8887;SDS011;4480;52.370;9.748;2022-10-17T07:14:22;4.50;;;3.50;;
8887;SDS011;4480;52.370;9.748;2022-10-17T07:16:55;4.10;;;3.37;;
8887;SDS011;4480;52.370;9.748;2022-10-17T07:19:24;5.93;;;4.07;;
8887;SDS011;4480;52.370;9.748;2022-10-17T07:21:51;3.40;;;3.10;;
8887;SDS011;4480;52.370;9.748;2022-10-17T07:24:17;4.53;;;3.10;;
8887;SDS011;4480;52.370;9.748;2022-10-17T07:26:44;3.40;;;2.93;;
8887;SDS011;4480;52.370;9.748;2022-10-17T07:29:11;3.93;;;3.33;;
8887;SDS011;4480;52.370;9.748;2022-10-17T07:31:38;4.07;;;3.37;;
8887;SDS011;4480;52.370;9.748;2022-10-17T07:34:05;3.53;;;2.83;;
8887;SDS011;4480;52.370;9.748;2022-10-17T07:36:33;4.47;;;3.00;;
8887;SDS011;4480;52.370;9.748;2022-10-17T07:39:00;3.50;;;2.73;;
8887;SDS011;4480;52.370;9.748;2022-10-17T07:41:27;3.20;;;2.90;;
8887;SDS011;4480;52.370;9.748;2022-10-17T07:43:54;5.40;;;3.30;;
8887;SDS011;4480;52.370;9.748;2022-10-17T07:46:21;3.97;;;3.10;;
8887;SDS011;4480;52.370;9.748;2022-10-17T07:48:48;3.90;;;3.27;;
8887;SDS011;4480;52.370;9.748;2022-10-17T07:51:15;5.73;;;2.57;;
8887;SDS011;4480;52.370;9.748;2022-10-17T07:53:43;7.97;;;2.83;;
8887;SDS011;4480;52.370;9.748;2022-10-17T07:56:10;3.13;;;2.83;;
8887;SDS011;4480;52.370;9.748;2022-10-17T07:58:37;4.90;;;3.87;;
8887;SDS011;4480;52.370;9.748;2022-10-17T08:01:05;5.20;;;2.83;;
8887;SDS011;4480;52.370;9.748;2022-10-17T08:03:38;3.37;;;2.60;;
8887;SDS011;4480;52.370;9.748;2022-10-17T08:06:05;4.43;;;2.73;;
8887;SDS011;4480;52.370;9.748;2022-10-17T08:08:32;3.30;;;3.00;;
8887;SDS011;4480;52.370;9.748;2022-10-17T08:11:01;3.30;;;2.63;;
8887;SDS011;4480;52.370;9.748;2022-10-17T08:13:30;3.60;;;3.30;;
8887;SDS011;4480;52.370;9.748;2022-10-17T08:16:00;4.90;;;2.77;;
8887;SDS011;4480;52.370;9.748;2022-10-17T08:18:29;4.27;;;3.03;;
8887;SDS011;4480;52.370;9.748;2022-10-17T08:20:57;3.70;;;2.70;;
8887;SDS011;4480;52.370;9.748;2022-10-17T08:23:25;4.20;;;2.93;;
8887;SDS011;4480;52.370;9.748;2022-10-17T08:25:52;8.13;;;3.10;;
8887;SDS011;4480;52.370;9.748;2022-10-17T08:28:20;5.70;;;3.00;;
8887;SDS011;4480;52.370;9.748;2022-10-17T08:30:47;3.40;;;3.10;;
8887;SDS011;4480;52.370;9.748;2022-10-17T08:33:14;4.40;;;3.00;;
8887;SDS011;4480;52.370;9.748;2022-10-17T08:35:40;4.90;;;2.97;;
8887;SDS011;4480;52.370;9.748;2022-10-17T08:38:07;5.43;;;3.00;;
8887;SDS011;4480;52.370;9.748;2022-10-17T08:40:34;3.87;;;2.50;;
8887;SDS011;4480;52.370;9.748;2022-10-17T08:43:19;7.13;;;4.20;;
8887;SDS011;4480;52.370;9.748;2022-10-17T08:45:57;9.87;;;3.20;;
8887;SDS011;4480;52.370;9.748;2022-10-17T08:48:45;6.23;;;3.20;;
8887;SDS011;4480;52.370;9.748;2022-10-17T08:51:14;4.47;;;3.10;;
8887;SDS011;4480;52.370;9.748;2022-10-17T08:53:46;4.07;;;3.40;;
8887;SDS011;4480;52.370;9.748;2022-10-17T08:56:18;4.13;;;2.83;;
8887;SDS011;4480;52.370;9.748;2022-10-17T08:58:47;4.07;;;2.83;;
8887;SDS011;4480;52.370;9.748;2022-10-17T09:01:22;3.83;;;2.40;;
8887;SDS011;4480;52.370;9.748;2022-10-17T09:04:01;5.03;;;3.23;;
8887;SDS011;4480;52.370;9.748;2022-10-17T09:06:42;3.57;;;3.27;;
8887;SDS011;4480;52.370;9.748;2022-10-17T09:09:20;3.27;;;2.90;;
8887;SDS011;4480;52.370;9.748;2022-10-17T09:11:58;5.73;;;3.43;;
8887;SDS011;4480;52.370;9.748;2022-10-17T09:14:41;4.70;;;3.23;;
8887;SDS011;4480;52.370;9.748;2022-10-17T09:17:29;6.63;;;3.70;;
8887;SDS011;4480;52.370;9.748;2022-10-17T09:20:03;4.67;;;2.73;;
8887;SDS011;4480;52.370;9.748;2022-10-17T09:22:36;4.33;;;2.77;;
8887;SDS011;4480;52.370;9.748;2022-10-17T09:25:08;3.73;;;2.90;;
8887;SDS011;4480;52.370;9.748;2022-10-17T09:27:39;3.13;;;2.70;;
8887;SDS011;4480;52.370;9.748;2022-10-17T09:30:20;4.53;;;3.30;;
8887;SDS011;4480;52.370;9.748;2022-10-17T09:32:53;4.20;;;3.03;;
8887;SDS011;4480;52.370;9.748;2022-10-17T09:35:20;3.17;;;2.83;;
8887;SDS011;4480;52.370;9.748;2022-10-17T09:37:48;5.47;;;3.20;;
8887;SDS011;4480;52.370;9.748;2022-10-17T09:40:17;6.80;;;2.80;;
8887;SDS011;4480;52.370;9.748;2022-10-17T09:42:48;4.73;;;3.00;;
8887;SDS011;4480;52.370;9.748;2022-10-17T09:45:18;4.93;;;3.20;;
8887;SDS011;4480;52.370;9.748;2022-10-17T09:47:52;3.83;;;3.53;;
8887;SDS011;4480;52.370;9.748;2022-10-17T09:50:25;6.70;;;2.73;;
8887;SDS011;4480;52.370;9.748;2022-10-17T09:52:53;3.83;;;2.90;;
8887;SDS011;4480;52.370;9.748;2022-10-17T09:55:24;5.17;;;4.50;;
8887;SDS011;4480;52.370;9.748;2022-10-17T09:57:56;5.60;;;2.67;;
8887;SDS011;4480;52.370;9.748;2022-10-17T10:00:27;3.93;;;2.63;;
8887;SDS011;4480;52.370;9.748;2022-10-17T10:03:07;5.20;;;2.97;;
8887;SDS011;4480;52.370;9.748;2022-10-17T10:05:35;2.90;;;2.67;;
8887;SDS011;4480;52.370;9.748;2022-10-17T10:08:03;4.07;;;3.70;;
8887;SDS011;4480;52.370;9.748;2022-10-17T10:10:31;10.17;;;3.87;;
8887;SDS011;4480;52.370;9.748;2022-10-17T10:13:03;3.80;;;3.00;;
8887;SDS011;4480;52.370;9.748;2022-10-17T10:15:34;4.20;;;2.77;;
8887;SDS011;4480;52.370;9.748;2022-10-17T10:18:02;4.47;;;3.17;;
8887;SDS011;4480;52.370;9.748;2022-10-17T10:21:01;4.40;;;3.17;;
8887;SDS011;4480;52.370;9.748;2022-10-17T10:23:30;3.70;;;3.20;;
8887;SDS011;4480;52.370;9.748;2022-10-17T10:25:58;3.40;;;3.10;;
8887;SDS011;4480;52.370;9.748;2022-10-17T10:28:28;10.07;;;3.23;;
8887;SDS011;4480;52.370;9.748;2022-10-17T10:31:00;4.37;;;2.93;;
8887;SDS011;4480;52.370;9.748;2022-10-17T10:33:30;4.13;;;3.00;;
8887;SDS011;4480;52.370;9.748;2022-10-17T10:35:59;4.57;;;2.77;;
8887;SDS011;4480;52.370;9.748;2022-10-17T10:38:27;5.97;;;3.20;;
8887;SDS011;4480;52.370;9.748;2022-10-17T10:40:55;3.53;;;3.23;;
8887;SDS011;4480;52.370;9.748;2022-10-17T10:43:28;3.83;;;2.73;;
8887;SDS011;4480;52.370;9.748;2022-10-17T10:46:00;5.00;;;3.30;;
8887;SDS011;4480;52.370;9.748;2022-10-17T10:48:31;3.43;;;3.13;;
8887;SDS011;4480;52.370;9.748;2022-10-17T10:51:00;6.20;;;2.60;;
8887;SDS011;4480;52.370;9.748;2022-10-17T10:53:36;4.37;;;2.97;;
8887;SDS011;4480;52.370;9.748;2022-10-17T10:56:10;3.33;;;3.03;;
8887;SDS011;4480;52.370;9.748;2022-10-17T10:58:45;2.77;;;2.47;;
8887;SDS011;4480;52.370;9.748;2022-10-17T11:01:18;5.80;;;3.17;;
8887;SDS011;4480;52.370;9.748;2022-10-17T11:03:59;5.57;;;3.37;;
8887;SDS011;4480;52.370;9.748;2022-10-17T11:06:39;4.23;;;2.90;;
8887;SDS011;4480;52.370;9.748;2022-10-17T11:09:14;3.80;;;3.10;;
8887;SDS011;4480;52.370;9.748;2022-10-17T11:11:52;4.77;;;2.90;;
8887;SDS011;4480;52.370;9.748;2022-10-17T11:14:27;3.50;;;2.57;;
8887;SDS011;4480;52.370;9.748;2022-10-17T11:17:07;3.57;;;2.93;;
8887;SDS011;4480;52.370;9.748;2022-10-17T11:19:41;7.53;;;2.53;;
8887;SDS011;4480;52.370;9.748;2022-10-17T11:22:18;6.60;;;3.17;;
8887;SDS011;4480;52.370;9.748;2022-10-17T11:24:51;10.50;;;3.50;;
8887;SDS011;4480;52.370;9.748;2022-10-17T11:27:23;7.20;;;3.23;;
8887;SDS011;4480;52.370;9.748;2022-10-17T11:29:53;6.33;;;2.50;;
8887;SDS011;4480;52.370;9.748;2022-10-17T11:32:22;4.70;;;3.10;;
8887;SDS011;4480;52.370;9.748;2022-10-17T11:34:56;3.50;;;2.60;;
8887;SDS011;4480;52.370;9.748;2022-10-17T11:37:27;4.77;;;2.57;;
8887;SDS011;4480;52.370;9.748;2022-10-17T11:39:59;3.30;;;2.80;;
8887;SDS011;4480;52.370;9.748;2022-10-17T11:42:29;4.30;;;2.80;;
8887;SDS011;4480;52.370;9.748;2022-10-17T11:45:00;2.60;;;2.40;;
8887;SDS011;4480;52.370;9.748;2022-10-17T11:47:33;3.33;;;2.97;;
8887;SDS011;4480;52.370;9.748;2022-10-17T11:50:17;3.80;;;2.60;;
8887;SDS011;4480;52.370;9.748;2022-10-17T11:52:49;3.80;;;2.53;;
8887;SDS011;4480;52.370;9.748;2022-10-17T11:55:19;4.77;;;3.20;;
8887;SDS011;4480;52.370;9.748;2022-10-17T11:57:51;4.70;;;2.70;;
8887;SDS011;4480;52.370;9.748;2022-10-17T12:00:25;3.60;;;2.90;;
8887;SDS011;4480;52.370;9.748;2022-10-17T12:03:02;3.03;;;2.70;;
8887;SDS011;4480;52.370;9.748;2022-10-17T12:05:40;4.70;;;3.40;;
8887;SDS011;4480;52.370;9.748;2022-10-17T12:08:17;3.67;;;2.80;;
8887;SDS011;4480;52.370;9.748;2022-10-17T12:10:50;5.30;;;3.20;;
8887;SDS011;4480;52.370;9.748;2022-10-17T12:19:28;3.03;;;2.80;;
8887;SDS011;4480;52.370;9.748;2022-10-17T12:22:04;4.47;;;2.77;;
8887;SDS011;4480;52.370;9.748;2022-10-17T12:24:44;4.03;;;3.10;;
8887;SDS011;4480;52.370;9.748;2022-10-17T12:27:20;3.20;;;2.90;;
8887;SDS011;4480;52.370;9.748;2022-10-17T12:30:20;3.37;;;2.87;;
8887;SDS011;4480;52.370;9.748;2022-10-17T12:32:52;3.93;;;3.20;;
8887;SDS011;4480;52.370;9.748;2022-10-17T12:35:23;4.93;;;2.40;;
8887;SDS011;4480;52.370;9.748;2022-10-17T12:52:16;3.47;;;2.57;;
8887;SDS011;4480;52.370;9.748;2022-10-17T12:54:55;6.30;;;3.17;;
8887;SDS011;4480;52.370;9.748;2022-10-17T12:57:33;4.27;;;2.90;;
8887;SDS011;4480;52.370;9.748;2022-10-17T13:00:11;9.90;;;3.53;;
8887;SDS011;4480;52.370;9.748;2022-10-17T13:02:42;3.60;;;3.30;;
8887;SDS011;4480;52.370;9.748;2022-10-17T13:05:10;4.30;;;3.10;;
8887;SDS011;4480;52.370;9.748;2022-10-17T13:07:43;4.20;;;3.10;;
8887;SDS011;4480;52.370;9.748;2022-10-17T13:10:17;5.97;;;3.17;;
8887;SDS011;4480;52.370;9.748;2022-10-17T13:12:46;4.17;;;3.20;;
8887;SDS011;4480;52.370;9.748;2022-10-17T13:15:16;5.17;;;3.20;;
8887;SDS011;4480;52.370;9.748;2022-10-17T13:17:45;6.40;;;3.47;;
8887;SDS011;4480;52.370;9.748;2022-10-17T13:20:21;8.33;;;3.63;;
8887;SDS011;4480;52.370;9.748;2022-10-17T13:22:53;5.57;;;3.17;;
8887;SDS011;4480;52.370;9.748;2022-10-17T13:25:22;6.13;;;3.20;;
8887;SDS011;4480;52.370;9.748;2022-10-17T13:27:50;3.87;;;3.30;;
8887;SDS011;4480;52.370;9.748;2022-10-17T13:30:29;6.67;;;3.23;;
8887;SDS011;4480;52.370;9.748;2022-10-17T13:32:57;6.70;;;3.13;;
8887;SDS011;4480;52.370;9.748;2022-10-17T13:35:26;4.30;;;3.27;;
8887;SDS011;4480;52.370;9.748;2022-10-17T13:37:57;4.70;;;3.00;;
8887;SDS011;4480;52.370;9.748;2022-10-17T13:40:27;6.87;;;3.20;;
8887;SDS011;4480;52.370;9.748;2022-10-17T13:42:57;5.07;;;3.40;;
8887;SDS011;4480;52.370;9.748;2022-10-17T13:45:27;3.97;;;3.30;;
8887;SDS011;4480;52.370;9.748;2022-10-17T13:47:57;4.60;;;2.90;;
8887;SDS011;4480;52.370;9.748;2022-10-17T13:50:30;4.00;;;3.00;;
8887;SDS011;4480;52.370;9.748;2022-10-17T13:53:07;4.90;;;3.17;;
8887;SDS011;4480;52.370;9.748;2022-10-17T13:55:52;3.43;;;3.13;;
8887;SDS011;4480;52.370;9.748;2022-10-17T13:58:22;4.93;;;3.47;;
8887;SDS011;4480;52.370;9.748;2022-10-17T14:00:50;6.97;;;4.23;;
8887;SDS011;4480;52.370;9.748;2022-10-17T14:03:18;6.10;;;3.40;;
8887;SDS011;4480;52.370;9.748;2022-10-17T14:06:04;5.67;;;3.63;;
8887;SDS011;4480;52.370;9.748;2022-10-17T14:08:47;7.07;;;3.80;;
8887;SDS011;4480;52.370;9.748;2022-10-17T14:11:29;5.40;;;4.17;;
8887;SDS011;4480;52.370;9.748;2022-10-17T14:13:59;4.77;;;4.10;;
8887;SDS011;4480;52.370;9.748;2022-10-17T14:16:32;6.30;;;3.30;;
8887;SDS011;4480;52.370;9.748;2022-10-17T14:19:02;6.93;;;3.73;;
8887;SDS011;4480;52.370;9.748;2022-10-17T14:21:30;6.83;;;4.33;;
8887;SDS011;4480;52.370;9.748;2022-10-17T14:24:26;6.97;;;5.00;;
8887;SDS011;4480;52.370;9.748;2022-10-17T14:26:56;7.27;;;4.13;;
8887;SDS011;4480;52.370;9.748;2022-10-17T14:29:24;5.23;;;4.60;;
8887;SDS011;4480;52.370;9.748;2022-10-17T14:31:59;8.00;;;4.00;;
8887;SDS011;4480;52.370;9.748;2022-10-17T14:34:30;8.53;;;4.07;;
8887;SDS011;4480;52.370;9.748;2022-10-17T14:36:59;5.73;;;4.10;;
8887;SDS011;4480;52.370;9.748;2022-10-17T14:39:28;6.63;;;4.47;;
8887;SDS011;4480;52.370;9.748;2022-10-17T14:41:55;4.63;;;3.80;;
8887;SDS011;4480;52.370;9.748;2022-10-17T14:44:23;6.23;;;4.10;;
8887;SDS011;4480;52.370;9.748;2022-10-17T14:46:53;5.90;;;4.13;;
8887;SDS011;4480;52.370;9.748;2022-10-17T14:49:31;9.57;;;4.77;;
8887;SDS011;4480;52.370;9.748;2022-10-17T14:52:10;9.70;;;4.20;;
8887;SDS011;4480;52.370;9.748;2022-10-17T14:54:39;8.83;;;4.43;;
8887;SDS011;4480;52.370;9.748;2022-10-17T14:57:13;6.50;;;3.87;;
8887;SDS011;4480;52.370;9.748;2022-10-17T14:59:42;6.93;;;4.40;;
8887;SDS011;4480;52.370;9.748;2022-10-17T15:02:09;5.30;;;3.93;;
8887;SDS011;4480;52.370;9.748;2022-10-17T15:04:37;5.73;;;4.23;;
8887;SDS011;4480;52.370;9.748;2022-10-17T15:07:03;6.07;;;3.80;;
8887;SDS011;4480;52.370;9.748;2022-10-17T15:09:30;5.87;;;4.17;;
8887;SDS011;4480;52.370;9.748;2022-10-17T15:11:59;5.60;;;4.00;;
8887;SDS011;4480;52.370;9.748;2022-10-17T15:14:27;6.10;;;3.90;;
8887;SDS011;4480;52.370;9.748;2022-10-17T15:16:54;7.17;;;4.00;;
8887;SDS011;4480;52.370;9.748;2022-10-17T15:19:21;7.60;;;4.37;;
8887;SDS011;4480;52.370;9.748;2022-10-17T15:21:47;10.77;;;4.30;;
8887;SDS011;4480;52.370;9.748;2022-10-17T15:24:14;7.63;;;4.30;;
8887;SDS011;4480;52.370;9.748;2022-10-17T15:26:41;6.47;;;4.43;;
8887;SDS011;4480;52.370;9.748;2022-10-17T15:29:10;4.80;;;3.90;;
8887;SDS011;4480;52.370;9.748;2022-10-17T15:31:40;7.90;;;5.57;;
8887;SDS011;4480;52.370;9.748;2022-10-17T15:34:07;7.70;;;4.40;;
8887;SDS011;4480;52.370;9.748;2022-10-17T15:36:34;7.03;;;4.03;;
8887;SDS011;4480;52.370;9.748;2022-10-17T15:39:04;4.93;;;4.17;;
8887;SDS011;4480;52.370;9.748;2022-10-17T15:41:31;7.90;;;4.20;;
8887;SDS011;4480;52.370;9.748;2022-10-17T15:43:59;7.07;;;4.37;;
8887;SDS011;4480;52.370;9.748;2022-10-17T15:46:28;5.00;;;4.07;;
8887;SDS011;4480;52.370;9.748;2022-10-17T15:49:00;6.93;;;4.57;;
8887;SDS011;4480;52.370;9.748;2022-10-17T15:51:28;10.60;;;4.80;;
8887;SDS011;4480;52.370;9.748;2022-10-17T15:53:55;9.90;;;5.63;;
8887;SDS011;4480;52.370;9.748;2022-10-17T15:56:25;6.80;;;4.70;;
8887;SDS011;4480;52.370;9.748;2022-10-17T15:58:54;12.23;;;4.40;;